Disclaimer

Please do not use the information listed here in-flight or in-navigation, as they are not provided to us by the airports but are provided by volunteers, so they might be outdated.

Search


Regions


Airport information page

Radio informations:
Tower (TWR) - 119.1 MHz
Automatic Terminal Information Service (ATIS) - 125.25 MHz

Airport informations:
Latitude: 60° 17' 36.19" N
Longitude: 005° 13' 05.31" E
Elevation: 170 feet - 52 meters
Operating hours: 24 hour operations
Operating agency: Civil government, landing fees and diplomatic clearance may be required
Timezone: UTC+1(+2DT) - Last Sunday in March to last Sunday in October
Fuel: Jet A1, without icing nhibitor.

100/130 MIL Spec, low lead, aviation gasoline (BLUE)

Runway information:
17/35 - 9810 x 148 feet< - >2990 x 45 meters

Recent METARs:
ENBR 170920Z 34009KT 9999 FEW015 M01/M04 Q0997 NOSIG RMK WIND 1200FT 35011KT
ENBR 170950Z 36008KT 9999 FEW015TCU FEW018 M00/M04 Q0998 NOSIG RMK WIND 1200FT 35014KT
ENBR 171020Z 36009KT 340V040 9999 FEW015TCU FEW018 M00/M04 Q0998 NOSIG RMK WIND 1200FT 35015KT

Airport on the map: